createdAt,value
2023-05-24T00:01:32.749Z,98.36
2023-05-24T00:06:38.295Z,97.69
2023-05-24T00:11:40.604Z,98.36
2023-05-24T00:16:42.803Z,99.57
2023-05-24T00:21:46.111Z,97.14
2023-05-24T00:26:48.718Z,98.22
2023-05-24T00:31:51.010Z,100.00
2023-05-24T00:36:53.247Z,98.05
2023-05-24T00:41:55.462Z,97.43
2023-05-24T00:46:58.104Z,97.29
2023-05-24T00:52:00.661Z,97.32
2023-05-24T00:57:03.640Z,96.29
2023-05-24T01:02:05.782Z,95.86
2023-05-24T01:07:14.999Z,95.10
2023-05-24T01:12:29.831Z,93.97
2023-05-24T01:17:49.101Z,94.50
2023-05-24T01:23:08.943Z,95.34
2023-05-24T01:28:11.888Z,93.62
2023-05-24T01:33:14.132Z,93.23
2023-05-24T01:38:16.725Z,91.40
2023-05-24T01:43:27.055Z,91.35
2023-05-24T01:49:02.543Z,91.77
2023-05-24T01:54:06.487Z,91.49
2023-05-24T01:59:09.602Z,91.69
2023-05-24T02:04:12.139Z,91.08
2023-05-24T02:09:14.118Z,92.59
2023-05-24T02:14:17.490Z,92.37
2023-05-24T02:19:19.635Z,92.95
2023-05-24T02:24:21.805Z,92.99
2023-05-24T02:29:23.943Z,93.15
2023-05-24T02:34:26.167Z,92.95
2023-05-24T02:39:28.312Z,92.95
2023-05-24T02:44:30.402Z,92.52
2023-05-24T02:49:32.659Z,91.83
2023-05-24T02:54:35.096Z,92.13
2023-05-24T02:59:38.220Z,91.07
2023-05-24T03:04:41.009Z,89.93
2023-05-24T03:09:46.604Z,89.88
2023-05-24T03:14:48.570Z,89.14
2023-05-24T03:19:52.758Z,90.18
2023-05-24T03:24:56.448Z,89.60
2023-05-24T03:29:58.537Z,87.66
2023-05-24T03:35:05.137Z,88.44
2023-05-24T03:40:09.120Z,87.39
2023-05-24T03:45:38.634Z,87.18
2023-05-24T03:50:42.628Z,87.64
2023-05-24T03:55:44.937Z,87.34
2023-05-24T04:00:48.491Z,87.35
2023-05-24T04:05:50.728Z,87.63
2023-05-24T04:10:52.742Z,88.04
2023-05-24T04:15:54.917Z,88.38
2023-05-24T04:20:56.985Z,89.27
2023-05-24T04:25:59.098Z,89.28
2023-05-24T04:31:01.222Z,89.38
2023-05-24T04:36:03.640Z,90.13
2023-05-24T04:41:06.104Z,89.48
2023-05-24T04:46:09.704Z,89.52
2023-05-24T04:51:12.103Z,88.66
2023-05-24T04:56:15.948Z,88.64
2023-05-24T05:01:18.504Z,89.67
2023-05-24T05:06:20.428Z,88.21
2023-05-24T05:11:22.698Z,89.63
2023-05-24T05:16:25.101Z,88.80
2023-05-24T05:21:27.382Z,87.46
2023-05-24T05:26:30.141Z,87.59
2023-05-24T05:31:32.575Z,86.28
2023-05-24T05:36:37.317Z,85.71
2023-05-24T05:41:39.821Z,85.01
2023-05-24T05:46:44.009Z,84.23
2023-05-24T05:51:47.227Z,83.26
2023-05-24T05:56:49.612Z,83.16
2023-05-24T06:01:52.123Z,82.31
2023-05-24T06:06:54.174Z,80.87
2023-05-24T06:11:56.372Z,81.21
2023-05-24T06:17:00.136Z,80.21
2023-05-24T06:22:02.819Z,80.28
2023-05-24T06:27:05.690Z,82.61
2023-05-24T06:32:07.902Z,80.39
2023-05-24T06:37:10.655Z,80.18
2023-05-24T06:42:12.961Z,80.45
2023-05-24T06:47:19.446Z,81.56
2023-05-24T06:52:22.051Z,80.83
2023-05-24T06:57:24.923Z,82.23
2023-05-24T07:02:28.679Z,79.47
2023-05-24T07:07:31.322Z,78.73
2023-05-24T07:12:33.361Z,77.91
2023-05-24T07:17:35.404Z,77.52
2023-05-24T07:22:37.764Z,77.27
2023-05-24T07:27:39.962Z,76.96
2023-05-24T07:32:42.362Z,76.55
2023-05-24T07:37:44.525Z,75.34
2023-05-24T07:42:47.640Z,74.04
2023-05-24T07:47:49.854Z,73.52
2023-05-24T07:52:51.954Z,73.28
2023-05-24T07:57:54.118Z,71.58
2023-05-24T08:02:56.737Z,71.03
2023-05-24T08:07:58.914Z,70.36
2023-05-24T08:13:01.266Z,71.02
2023-05-24T08:18:04.024Z,69.94
2023-05-24T08:23:05.939Z,70.05
2023-05-24T08:28:08.831Z,68.68
2023-05-24T08:33:11.195Z,66.61
2023-05-24T08:38:13.192Z,63.88
2023-05-24T08:43:15.412Z,63.26
2023-05-24T08:48:18.533Z,61.08
2023-05-24T08:53:22.560Z,59.75
2023-05-24T08:58:24.848Z,56.10
2023-05-24T09:03:27.254Z,57.11
2023-05-24T09:08:29.529Z,56.42
2023-05-24T09:13:31.993Z,56.31
2023-05-24T09:18:34.100Z,55.61
2023-05-24T09:23:36.882Z,54.21
2023-05-24T09:28:39.353Z,49.97
2023-05-24T09:33:41.690Z,48.02
2023-05-24T09:38:44.119Z,47.48
2023-05-24T09:43:50.073Z,45.84
2023-05-24T09:49:04.134Z,45.50
2023-05-24T09:54:06.492Z,44.02
2023-05-24T09:59:08.759Z,41.92
2023-05-24T10:04:11.012Z,42.26
2023-05-24T10:09:14.157Z,43.64
2023-05-24T10:14:18.162Z,41.93
2023-05-24T10:19:20.311Z,37.78
2023-05-24T10:24:25.389Z,40.07
2023-05-24T10:29:36.350Z,40.23
2023-05-24T10:34:38.930Z,39.10
2023-05-24T10:39:42.081Z,39.98
2023-05-24T10:44:45.101Z,39.04
2023-05-24T10:50:04.841Z,38.89
2023-05-24T10:55:09.929Z,36.48
2023-05-24T11:00:34.600Z,39.26
2023-05-24T11:05:50.786Z,42.13
2023-05-24T11:16:39.517Z,43.31
2023-05-24T11:21:44.769Z,43.45
2023-05-24T11:26:47.240Z,44.59
2023-05-24T11:31:51.134Z,44.39
2023-05-24T11:36:55.181Z,41.53
2023-05-24T11:41:57.245Z,39.38
2023-05-24T11:47:03.332Z,41.53
2023-05-24T11:52:05.424Z,42.13
2023-05-24T11:57:07.419Z,42.94
2023-05-24T12:02:09.570Z,42.65
2023-05-24T12:07:14.071Z,44.90
2023-05-24T12:12:16.238Z,40.67
2023-05-24T12:17:18.203Z,39.19
2023-05-24T12:22:21.190Z,39.22
2023-05-24T12:27:27.695Z,40.53
2023-05-24T12:32:29.780Z,38.95
2023-05-24T12:37:32.496Z,38.54
2023-05-24T12:42:34.470Z,39.09
2023-05-24T12:47:36.729Z,39.99
2023-05-24T12:52:38.736Z,38.37
2023-05-24T12:57:41.466Z,39.98
2023-05-24T13:02:43.571Z,39.87
2023-05-24T13:07:46.182Z,39.43
2023-05-24T13:12:48.239Z,38.75
2023-05-24T13:17:50.720Z,36.33
2023-05-24T13:22:52.784Z,36.19
2023-05-24T13:27:55.107Z,36.08
2023-05-24T13:32:59.621Z,38.48
2023-05-24T13:38:01.647Z,39.35
2023-05-24T13:43:04.025Z,39.16
2023-05-24T13:48:06.225Z,38.30
2023-05-24T13:53:08.143Z,38.49
2023-05-24T13:58:10.832Z,38.34
2023-05-24T14:03:13.239Z,39.19
2023-05-24T14:08:15.292Z,39.84
2023-05-24T14:13:55.333Z,38.92
2023-05-24T14:18:39.904Z,39.07
2023-05-24T14:23:42.185Z,40.26
2023-05-24T14:28:46.699Z,39.62
2023-05-24T14:33:48.846Z,38.85
2023-05-24T14:38:52.289Z,38.71
2023-05-24T14:43:54.152Z,38.86
2023-05-24T14:48:56.325Z,38.15
2023-05-24T14:53:58.468Z,39.05
2023-05-24T14:59:00.446Z,37.76
2023-05-24T15:04:03.234Z,39.01
2023-05-24T15:09:06.701Z,37.62
2023-05-24T15:14:08.966Z,38.25
2023-05-24T15:19:13.429Z,38.29
2023-05-24T15:24:15.569Z,39.75
2023-05-24T15:29:17.734Z,39.63
2023-05-24T15:34:21.517Z,38.71
2023-05-24T15:39:25.912Z,37.49
2023-05-24T15:44:28.062Z,35.46
2023-05-24T15:49:30.114Z,35.40
2023-05-24T15:54:32.739Z,37.17
2023-05-24T15:59:37.022Z,36.43
2023-05-24T16:04:39.820Z,39.87
2023-05-24T16:09:41.935Z,43.11
2023-05-24T16:14:44.552Z,45.52
2023-05-24T16:19:49.594Z,46.80
2023-05-24T16:24:51.788Z,47.44
2023-05-24T16:29:53.830Z,47.89
2023-05-24T16:34:57.054Z,47.71
2023-05-24T16:39:59.928Z,47.79
2023-05-24T16:45:03.046Z,48.02
2023-05-24T16:50:05.589Z,47.99
2023-05-24T16:55:09.516Z,48.49
2023-05-24T17:00:12.743Z,48.95
2023-05-24T17:05:15.673Z,48.20
2023-05-24T17:10:17.599Z,48.81
2023-05-24T17:15:19.597Z,48.70
2023-05-24T17:20:21.950Z,48.61
2023-05-24T17:25:32.383Z,47.67
2023-05-24T17:30:34.392Z,48.16
2023-05-24T17:35:36.369Z,48.60
2023-05-24T17:40:38.432Z,48.01
2023-05-24T17:45:41.328Z,47.68
2023-05-24T17:50:44.122Z,47.24
2023-05-24T17:55:46.262Z,47.69
2023-05-24T18:00:48.660Z,47.20
2023-05-24T18:05:50.722Z,46.90
2023-05-24T18:10:52.991Z,47.12
2023-05-24T18:15:56.993Z,47.31
2023-05-24T18:20:59.376Z,47.94
2023-05-24T18:26:03.231Z,48.59
2023-05-24T18:31:08.701Z,50.78
2023-05-24T18:36:10.960Z,50.91
2023-05-24T18:41:13.649Z,51.33
2023-05-24T18:46:15.933Z,50.90
2023-05-24T18:51:18.130Z,51.17
2023-05-24T18:56:21.874Z,52.30
2023-05-24T19:01:25.369Z,52.82
2023-05-24T19:06:27.496Z,53.16
2023-05-24T19:11:30.422Z,53.57
2023-05-24T19:16:32.449Z,53.55
2023-05-24T19:21:34.774Z,54.07
2023-05-24T19:26:36.869Z,54.31
2023-05-24T19:31:38.875Z,55.01
2023-05-24T19:36:40.951Z,55.98
2023-05-24T19:41:42.872Z,56.54
2023-05-24T19:46:45.648Z,56.15
2023-05-24T19:51:47.591Z,55.35
2023-05-24T19:56:52.069Z,54.56
2023-05-24T20:01:54.149Z,54.27
2023-05-24T20:06:56.282Z,54.75
2023-05-24T20:11:58.251Z,56.37
2023-05-24T20:17:00.291Z,56.40
2023-05-24T20:22:02.485Z,57.82
2023-05-24T20:27:04.907Z,57.38
2023-05-24T20:32:07.488Z,57.64
2023-05-24T20:37:09.434Z,57.02
2023-05-24T20:42:12.120Z,57.61
2023-05-24T20:47:17.292Z,58.46
2023-05-24T20:52:19.515Z,58.20
2023-05-24T20:57:23.086Z,58.28
2023-05-24T21:02:31.063Z,59.09
2023-05-24T21:07:33.514Z,58.92
2023-05-24T21:12:35.612Z,59.90
2023-05-24T21:17:39.396Z,60.57
2023-05-24T21:22:41.774Z,60.74
2023-05-24T21:27:43.772Z,60.88
2023-05-24T21:32:46.366Z,61.22
2023-05-24T21:37:48.919Z,61.58
2023-05-24T21:42:51.146Z,62.16
2023-05-24T21:47:53.234Z,62.91
2023-05-24T21:52:55.236Z,63.21
2023-05-24T21:57:57.769Z,62.74
2023-05-24T22:03:00.984Z,63.58
2023-05-24T22:08:03.133Z,63.30
2023-05-24T22:13:05.470Z,63.30
2023-05-24T22:18:08.920Z,63.49
2023-05-24T22:23:12.082Z,63.65
2023-05-24T22:28:14.386Z,64.02
2023-05-24T22:33:16.686Z,64.59
2023-05-24T22:38:18.696Z,65.00
2023-05-24T22:43:20.744Z,65.44
2023-05-24T22:48:26.737Z,66.12
2023-05-24T22:53:29.105Z,66.22
2023-05-24T22:58:31.174Z,65.96
2023-05-24T23:03:33.102Z,66.65
2023-05-24T23:08:36.040Z,66.85
2023-05-24T23:13:38.375Z,66.88
2023-05-24T23:18:43.392Z,68.19
2023-05-24T23:23:46.511Z,68.81
2023-05-24T23:28:48.666Z,68.52
2023-05-24T23:33:50.596Z,68.78
2023-05-24T23:38:52.633Z,69.32
2023-05-24T23:43:54.567Z,69.35
2023-05-24T23:48:56.568Z,69.29
2023-05-24T23:53:58.499Z,69.71
2023-05-24T23:59:01.679Z,70.39
